createdAt,value
2017-08-15T00:02:13.604Z,57.00
2017-08-15T00:04:41.875Z,56.60
2017-08-15T00:07:10.160Z,57.40
2017-08-15T00:09:39.200Z,57.90
2017-08-15T00:12:07.478Z,57.80
2017-08-15T00:14:35.739Z,58.10
2017-08-15T00:17:04.030Z,58.60
2017-08-15T00:19:32.291Z,58.70
2017-08-15T00:22:00.684Z,59.10
2017-08-15T00:24:30.710Z,61.40
2017-08-15T00:26:58.978Z,61.40
2017-08-15T00:29:27.272Z,61.40
2017-08-15T00:31:56.313Z,61.20
2017-08-15T00:34:24.828Z,61.00
2017-08-15T00:36:53.844Z,62.20
2017-08-15T00:39:22.113Z,62.10
2017-08-15T00:41:50.423Z,63.70
2017-08-15T00:44:19.470Z,64.40
2017-08-15T00:46:47.783Z,64.40
2017-08-15T00:49:16.064Z,65.10
2017-08-15T00:51:44.344Z,64.30
2017-08-15T00:54:12.623Z,64.90
2017-08-15T00:56:40.896Z,65.20
2017-08-15T00:59:09.980Z,65.80
2017-08-15T01:01:39.007Z,66.30
2017-08-15T01:04:07.291Z,66.20
2017-08-15T01:06:35.567Z,66.20
2017-08-15T01:09:03.840Z,66.70
2017-08-15T01:11:32.932Z,67.10
2017-08-15T01:14:01.968Z,67.10
2017-08-15T01:16:30.231Z,67.00
2017-08-15T01:18:58.527Z,66.50
2017-08-15T01:21:27.565Z,67.00
2017-08-15T01:23:55.920Z,66.90
2017-08-15T01:26:24.203Z,68.10
2017-08-15T01:28:52.491Z,68.30
2017-08-15T01:31:21.543Z,68.90
2017-08-15T01:33:49.806Z,68.80
2017-08-15T01:36:18.092Z,68.70
2017-08-15T01:38:47.119Z,69.70
2017-08-15T01:41:15.399Z,69.60
2017-08-15T01:43:43.659Z,69.60
2017-08-15T01:46:11.948Z,68.50
2017-08-15T01:48:40.979Z,68.40
2017-08-15T01:51:09.271Z,68.30
2017-08-15T01:53:38.638Z,69.20
2017-08-15T01:56:06.924Z,69.20
2017-08-15T01:58:35.187Z,69.40
2017-08-15T02:01:03.680Z,69.40
2017-08-15T02:03:31.952Z,69.30
2017-08-15T02:06:00.227Z,69.40
2017-08-15T02:08:28.647Z,69.30
2017-08-15T02:10:57.675Z,69.70
2017-08-15T02:13:25.976Z,69.70
2017-08-15T02:15:54.252Z,70.60
2017-08-15T02:18:23.324Z,71.20
2017-08-15T02:20:52.472Z,71.10
2017-08-15T02:23:20.753Z,71.70
2017-08-15T02:25:49.030Z,71.40
2017-08-15T02:28:17.306Z,71.50
2017-08-15T02:30:46.339Z,71.40
2017-08-15T02:33:14.623Z,71.40
2017-08-15T02:35:42.891Z,71.50
2017-08-15T02:38:11.179Z,71.80
2017-08-15T02:40:39.457Z,71.70
2017-08-15T02:43:09.198Z,72.50
2017-08-15T02:45:37.460Z,72.40
2017-08-15T02:48:05.741Z,72.50
2017-08-15T02:50:34.780Z,73.70
2017-08-15T02:53:03.071Z,73.40
2017-08-15T02:55:32.112Z,74.20
2017-08-15T02:58:00.400Z,73.90
2017-08-15T03:00:28.671Z,74.10
2017-08-15T03:02:57.723Z,75.10
2017-08-15T03:05:25.998Z,74.50
2017-08-15T03:07:54.327Z,75.30
2017-08-15T03:10:22.604Z,73.70
2017-08-15T03:12:50.879Z,74.40
2017-08-15T03:15:19.168Z,74.50
2017-08-15T03:17:48.195Z,74.10
2017-08-15T03:20:16.479Z,74.60
2017-08-15T03:22:44.748Z,75.70
2017-08-15T03:25:13.026Z,75.70
2017-08-15T03:27:41.296Z,75.60
2017-08-15T03:30:10.350Z,74.80
2017-08-15T03:32:38.622Z,74.70
2017-08-15T03:35:06.901Z,75.30
2017-08-15T03:37:35.940Z,75.70
2017-08-15T03:40:04.224Z,75.50
2017-08-15T03:42:32.798Z,75.10
2017-08-15T03:45:01.859Z,75.30
2017-08-15T03:47:30.439Z,75.90
2017-08-15T03:49:59.500Z,75.10
2017-08-15T03:52:27.768Z,75.10
2017-08-15T03:54:56.948Z,75.80
2017-08-15T03:57:25.227Z,75.70
2017-08-15T03:59:53.511Z,76.00
2017-08-15T04:02:22.544Z,76.60
2017-08-15T04:04:50.836Z,76.50
2017-08-15T04:07:19.097Z,76.70
2017-08-15T04:09:48.143Z,75.90
2017-08-15T04:12:16.407Z,76.40
2017-08-15T04:14:44.716Z,77.70
2017-08-15T04:17:13.748Z,76.20
2017-08-15T04:19:42.020Z,76.20
2017-08-15T04:22:10.303Z,76.20
2017-08-15T04:24:39.332Z,77.60
2017-08-15T04:27:07.607Z,77.60
2017-08-15T04:29:35.876Z,77.60
2017-08-15T04:32:04.160Z,77.60
2017-08-15T04:34:33.204Z,77.50
2017-08-15T04:37:01.488Z,77.60
2017-08-15T04:39:29.757Z,77.60
2017-08-15T04:41:58.076Z,77.60
2017-08-15T04:44:26.351Z,77.70
2017-08-15T04:46:54.636Z,77.00
2017-08-15T04:49:22.908Z,76.90
2017-08-15T04:51:51.188Z,77.00
2017-08-15T04:54:19.456Z,76.80
2017-08-15T04:56:47.755Z,77.10
2017-08-15T04:59:16.040Z,76.50
2017-08-15T05:01:44.320Z,75.30
2017-08-15T05:04:13.349Z,75.20
2017-08-15T05:06:41.627Z,75.10
2017-08-15T05:09:09.891Z,75.00
2017-08-15T05:11:38.172Z,74.60
2017-08-15T05:14:07.207Z,73.70
2017-08-15T05:16:35.788Z,73.70
2017-08-15T05:19:04.063Z,73.10
2017-08-15T05:21:32.847Z,73.80
2017-08-15T05:24:01.116Z,72.00
2017-08-15T05:26:30.205Z,71.60
2017-08-15T05:28:59.243Z,71.40
2017-08-15T05:31:27.510Z,71.30
2017-08-15T05:33:55.799Z,69.60
2017-08-15T05:36:24.852Z,70.00
2017-08-15T05:38:53.153Z,69.90
2017-08-15T05:41:22.196Z,70.10
2017-08-15T05:43:50.475Z,70.10
2017-08-15T05:46:18.740Z,68.20
2017-08-15T05:48:47.023Z,68.80
2017-08-15T05:51:15.291Z,67.90
2017-08-15T05:53:43.576Z,67.60
2017-08-15T05:56:11.844Z,66.00
2017-08-15T05:58:40.129Z,64.90
2017-08-15T06:01:08.395Z,64.90
2017-08-15T06:03:36.919Z,63.30
2017-08-15T06:06:05.191Z,61.90
2017-08-15T06:08:33.475Z,62.10
2017-08-15T06:11:01.740Z,61.20
2017-08-15T06:13:30.028Z,61.30
2017-08-15T06:15:59.065Z,61.20
2017-08-15T06:18:27.347Z,61.10
2017-08-15T06:20:55.752Z,60.60
2017-08-15T06:23:24.058Z,60.90
2017-08-15T06:25:52.321Z,58.70
2017-08-15T06:28:20.591Z,58.80
2017-08-15T06:30:48.880Z,59.70
2017-08-15T06:33:17.925Z,58.60
2017-08-15T06:35:46.206Z,58.50
2017-08-15T06:38:14.485Z,58.60
2017-08-15T06:40:42.795Z,57.80
2017-08-15T06:43:11.070Z,56.80
2017-08-15T06:45:39.356Z,56.50
2017-08-15T06:48:08.391Z,56.80
2017-08-15T06:50:36.692Z,56.70
2017-08-15T06:53:04.956Z,56.00
2017-08-15T06:55:34.019Z,56.70
2017-08-15T06:58:02.297Z,56.60
2017-08-15T07:00:31.355Z,55.10
2017-08-15T07:03:00.257Z,55.10
2017-08-15T07:05:29.322Z,55.10
2017-08-15T07:08:00.453Z,55.10
2017-08-15T07:10:29.512Z,56.30
2017-08-15T07:12:57.788Z,55.60
2017-08-15T07:15:26.108Z,55.20
2017-08-15T07:17:54.392Z,55.30
2017-08-15T07:20:22.723Z,55.10
2017-08-15T07:22:50.996Z,55.30
2017-08-15T07:25:19.275Z,54.80
2017-08-15T07:27:49.201Z,54.80
2017-08-15T07:30:17.467Z,54.80
2017-08-15T07:32:46.531Z,55.40
2017-08-15T07:35:14.807Z,55.70
2017-08-15T07:37:43.875Z,53.80
2017-08-15T07:40:12.158Z,53.80
2017-08-15T07:42:41.207Z,53.30
2017-08-15T07:45:09.487Z,53.20
2017-08-15T07:47:38.636Z,52.70
2017-08-15T07:50:06.920Z,52.50
2017-08-15T07:52:35.231Z,53.10
2017-08-15T07:55:03.503Z,54.10
2017-08-15T07:57:31.770Z,53.00
2017-08-15T08:00:00.068Z,54.60
2017-08-15T08:02:28.380Z,53.10
2017-08-15T08:04:56.671Z,54.30
2017-08-15T08:07:24.946Z,52.60
2017-08-15T08:09:53.236Z,52.70
2017-08-15T08:12:22.271Z,52.70
2017-08-15T08:14:50.570Z,52.60
2017-08-15T08:17:19.611Z,50.70
2017-08-15T08:19:47.911Z,50.50
2017-08-15T08:22:16.947Z,51.50
2017-08-15T08:24:45.239Z,51.40
2017-08-15T08:27:13.524Z,51.70
2017-08-15T08:29:42.620Z,50.50
2017-08-15T08:32:10.896Z,50.50
2017-08-15T08:34:39.342Z,50.60
2017-08-15T08:37:07.638Z,50.40
2017-08-15T08:39:35.923Z,49.90
2017-08-15T08:42:04.255Z,49.10
2017-08-15T08:44:32.519Z,49.20
2017-08-15T08:47:00.806Z,49.20
2017-08-15T08:49:29.085Z,49.60
2017-08-15T08:51:58.123Z,48.20
2017-08-15T08:54:26.440Z,48.10
2017-08-15T08:56:55.631Z,49.60
2017-08-15T08:59:23.903Z,49.40
2017-08-15T09:01:52.210Z,47.50
2017-08-15T09:04:20.693Z,47.10
2017-08-15T09:06:49.170Z,46.70
2017-08-15T09:09:17.478Z,46.40
2017-08-15T09:11:45.800Z,47.60
2017-08-15T09:14:14.860Z,47.10
2017-08-15T09:16:43.908Z,46.10
2017-08-15T09:19:12.233Z,45.30
2017-08-15T09:21:40.711Z,47.20
2017-08-15T09:24:08.989Z,45.50
2017-08-15T09:26:37.272Z,45.30
2017-08-15T09:29:07.388Z,45.60
2017-08-15T09:31:35.691Z,45.60
2017-08-15T09:34:03.978Z,47.40
2017-08-15T09:36:32.245Z,45.70
2017-08-15T09:39:00.543Z,47.30
2017-08-15T09:41:28.795Z,45.60
2017-08-15T09:43:57.132Z,45.90
2017-08-15T09:46:25.543Z,46.50
2017-08-15T09:48:54.609Z,44.40
2017-08-15T09:51:22.896Z,44.50
2017-08-15T09:53:51.192Z,44.30
2017-08-15T09:56:19.498Z,46.10
2017-08-15T09:59:03.561Z,45.30
2017-08-15T10:01:31.916Z,45.90
2017-08-15T10:04:00.200Z,44.20
2017-08-15T10:06:28.475Z,43.70
2017-08-15T10:08:56.756Z,44.60
2017-08-15T10:11:25.019Z,44.00
2017-08-15T10:13:53.355Z,42.70
2017-08-15T10:16:21.632Z,42.00
2017-08-15T10:18:49.903Z,41.30
2017-08-15T10:21:18.196Z,42.10
2017-08-15T10:23:46.509Z,44.70
2017-08-15T10:26:14.803Z,40.70
2017-08-15T10:28:43.983Z,42.30
2017-08-15T10:31:12.264Z,42.00
2017-08-15T10:33:41.632Z,42.70
2017-08-15T10:36:09.908Z,42.70
2017-08-15T10:38:39.064Z,43.10
2017-08-15T10:41:07.328Z,43.00
2017-08-15T10:43:35.723Z,40.70
2017-08-15T10:46:04.016Z,41.50
2017-08-15T10:48:32.296Z,43.50
2017-08-15T10:51:00.619Z,41.40
2017-08-15T10:53:28.897Z,41.60
2017-08-15T10:55:57.159Z,41.30
2017-08-15T10:58:25.454Z,40.50
2017-08-15T11:00:53.729Z,40.80
2017-08-15T11:03:22.844Z,42.70
2017-08-15T11:05:51.120Z,42.60
2017-08-15T11:08:19.388Z,40.20
2017-08-15T11:10:49.220Z,39.60
2017-08-15T11:13:17.492Z,39.50
2017-08-15T11:15:46.596Z,39.40
2017-08-15T11:18:14.875Z,39.30
2017-08-15T11:20:43.152Z,39.40
2017-08-15T11:23:11.448Z,38.80
2017-08-15T11:25:39.704Z,39.20
2017-08-15T11:28:08.020Z,37.90
2017-08-15T11:30:36.288Z,42.00
2017-08-15T11:33:04.564Z,39.00
2017-08-15T11:35:32.872Z,36.30
2017-08-15T11:38:01.139Z,36.90
2017-08-15T11:40:30.243Z,36.10
2017-08-15T11:42:58.516Z,36.10
2017-08-15T11:45:26.794Z,35.20
2017-08-15T11:47:55.084Z,36.30
2017-08-15T11:50:23.361Z,36.40
2017-08-15T11:52:52.455Z,34.70
2017-08-15T11:55:20.739Z,34.60
2017-08-15T11:57:49.014Z,34.60
2017-08-15T12:00:17.303Z,36.90
2017-08-15T12:02:45.579Z,34.70
2017-08-15T12:05:13.887Z,35.80
2017-08-15T12:07:42.161Z,38.10
2017-08-15T12:10:10.437Z,33.50
2017-08-15T12:12:38.724Z,31.80
2017-08-15T12:15:07.779Z,32.40
2017-08-15T12:17:36.084Z,32.40
2017-08-15T12:20:05.121Z,30.70
2017-08-15T12:22:33.388Z,30.40
2017-08-15T12:25:01.674Z,34.10
2017-08-15T12:27:30.709Z,30.90
2017-08-15T12:29:59.007Z,30.80
2017-08-15T12:32:28.049Z,34.00
2017-08-15T12:34:56.320Z,34.00
2017-08-15T12:37:24.609Z,31.60
2017-08-15T12:39:52.878Z,31.90
2017-08-15T12:42:21.972Z,32.30
2017-08-15T12:44:51.012Z,32.10
2017-08-15T12:47:19.271Z,32.10
2017-08-15T12:49:47.563Z,31.60
2017-08-15T12:52:15.843Z,32.90
2017-08-15T12:54:44.164Z,34.20
2017-08-15T12:57:12.436Z,33.30
2017-08-15T12:59:41.489Z,33.50
2017-08-15T13:02:09.763Z,33.40
2017-08-15T13:04:38.039Z,32.80
2017-08-15T13:07:07.132Z,32.70
2017-08-15T13:09:36.164Z,31.30
2017-08-15T13:12:04.438Z,31.30
2017-08-15T13:14:32.725Z,29.50
2017-08-15T13:17:01.759Z,28.20
2017-08-15T13:19:30.059Z,28.20
2017-08-15T13:21:59.095Z,31.10
2017-08-15T13:24:27.385Z,30.50
2017-08-15T13:26:55.669Z,31.50
2017-08-15T13:29:24.704Z,29.90
2017-08-15T13:31:53.011Z,29.90
2017-08-15T13:34:22.048Z,30.40
2017-08-15T13:36:50.315Z,30.20
2017-08-15T13:39:18.619Z,29.90
2017-08-15T13:41:47.884Z,32.60
2017-08-15T13:44:16.192Z,32.50
2017-08-15T13:46:44.467Z,31.00
2017-08-15T13:49:12.777Z,33.80
2017-08-15T13:51:41.067Z,31.00
2017-08-15T13:54:09.456Z,30.00
2017-08-15T13:56:37.751Z,29.80
2017-08-15T13:59:06.085Z,32.40
2017-08-15T14:01:34.413Z,28.80
2017-08-15T14:04:02.688Z,28.80
2017-08-15T14:06:31.013Z,29.10
2017-08-15T14:09:00.109Z,28.20
2017-08-15T14:11:29.149Z,28.60
2017-08-15T14:13:57.421Z,29.10
2017-08-15T14:16:25.708Z,27.70
2017-08-15T14:18:53.975Z,28.80
2017-08-15T14:21:22.288Z,28.60
2017-08-15T14:23:50.556Z,30.00
2017-08-15T14:26:18.832Z,30.60
2017-08-15T14:28:47.116Z,28.80
2017-08-15T14:31:16.147Z,30.40
2017-08-15T14:33:44.451Z,30.40
2017-08-15T14:36:13.500Z,31.30
2017-08-15T14:38:41.764Z,31.30
2017-08-15T14:41:10.333Z,31.60
2017-08-15T14:43:38.592Z,32.70
2017-08-15T14:46:06.896Z,32.20
2017-08-15T14:48:35.164Z,32.60
2017-08-15T14:51:03.439Z,31.20
2017-08-15T14:53:31.720Z,30.00
2017-08-15T14:55:59.988Z,30.60
2017-08-15T14:58:28.295Z,30.60
2017-08-15T15:00:56.572Z,29.60
2017-08-15T15:03:24.831Z,29.10
2017-08-15T15:05:53.235Z,29.00
2017-08-15T15:08:21.504Z,29.50
2017-08-15T15:10:49.863Z,30.30
2017-08-15T15:13:19.223Z,31.30
2017-08-15T15:15:47.519Z,31.30
2017-08-15T15:18:15.801Z,31.30
2017-08-15T15:20:44.881Z,32.50
2017-08-15T15:23:13.988Z,32.00
2017-08-15T15:25:42.268Z,31.90
2017-08-15T15:28:10.549Z,32.90
2017-08-15T15:30:38.832Z,33.70
2017-08-15T15:33:07.103Z,34.70
2017-08-15T15:35:35.415Z,33.60
2017-08-15T15:38:03.681Z,34.40
2017-08-15T15:40:31.952Z,34.40
2017-08-15T15:43:00.232Z,35.00
2017-08-15T15:45:28.510Z,35.90
2017-08-15T15:47:57.587Z,36.40
2017-08-15T15:50:26.632Z,37.00
2017-08-15T15:52:54.916Z,36.90
2017-08-15T15:55:23.195Z,37.20
2017-08-15T15:57:52.465Z,38.70
2017-08-15T16:00:21.770Z,38.40
2017-08-15T16:02:50.797Z,40.20
2017-08-15T16:05:19.063Z,39.70
2017-08-15T16:07:47.340Z,41.40
2017-08-15T16:10:15.616Z,41.70
2017-08-15T16:12:43.928Z,42.00
2017-08-15T16:15:12.204Z,42.00
2017-08-15T16:17:40.488Z,41.90
2017-08-15T16:20:08.773Z,43.70
2017-08-15T16:22:37.826Z,43.70
2017-08-15T16:25:06.148Z,43.60
2017-08-15T16:27:34.419Z,44.80
2017-08-15T16:30:02.696Z,43.80
2017-08-15T16:32:30.998Z,44.20
2017-08-15T16:35:00.062Z,46.10
2017-08-15T16:37:28.372Z,46.10
2017-08-15T16:39:56.648Z,45.70
2017-08-15T16:42:24.932Z,46.00
2017-08-15T16:44:53.496Z,45.90
2017-08-15T16:47:21.768Z,45.80
2017-08-15T16:49:50.102Z,46.60
2017-08-15T16:52:18.359Z,47.00
2017-08-15T16:54:46.659Z,47.40
2017-08-15T16:57:14.965Z,48.10
2017-08-15T16:59:43.252Z,47.90
2017-08-15T17:02:11.617Z,46.60
2017-08-15T17:04:39.884Z,46.50
2017-08-15T17:07:08.167Z,47.00
2017-08-15T17:09:36.459Z,47.40
2017-08-15T17:12:04.744Z,49.10
2017-08-15T17:14:33.052Z,48.00
2017-08-15T17:17:01.340Z,47.50
2017-08-15T17:19:30.372Z,48.50
2017-08-15T17:21:58.660Z,48.40
2017-08-15T17:24:26.992Z,48.50
2017-08-15T17:26:55.288Z,47.70
2017-08-15T17:29:23.591Z,48.00
2017-08-15T17:31:51.876Z,48.40
2017-08-15T17:34:20.184Z,47.70
2017-08-15T17:36:49.228Z,48.80
2017-08-15T17:39:17.520Z,48.70
2017-08-15T17:41:46.564Z,48.30
2017-08-15T17:44:14.835Z,48.50
2017-08-15T17:46:43.138Z,47.50
2017-08-15T17:49:11.420Z,48.20
2017-08-15T17:51:39.707Z,48.40
2017-08-15T17:54:07.991Z,48.90
2017-08-15T17:56:36.472Z,49.40
2017-08-15T17:59:05.524Z,49.30
2017-08-15T18:01:33.795Z,49.20
2017-08-15T18:04:02.080Z,49.20
2017-08-15T18:06:30.352Z,49.60
2017-08-15T18:08:58.660Z,50.60
2017-08-15T18:11:26.940Z,52.10
2017-08-15T18:13:55.315Z,53.80
2017-08-15T18:16:24.379Z,53.80
2017-08-15T18:18:52.655Z,53.10
2017-08-15T18:21:22.569Z,53.10
2017-08-15T18:23:51.607Z,53.60
2017-08-15T18:26:19.883Z,53.50
2017-08-15T18:28:48.185Z,54.10
2017-08-15T18:31:16.472Z,53.20
2017-08-15T18:33:44.783Z,53.70
2017-08-15T18:36:13.832Z,54.60
2017-08-15T18:38:42.153Z,54.60
2017-08-15T18:41:10.447Z,55.40
2017-08-15T18:43:38.731Z,54.80
2017-08-15T18:46:07.081Z,54.00
2017-08-15T18:48:35.383Z,53.80
2017-08-15T18:51:04.415Z,54.00
2017-08-15T18:53:34.330Z,53.90
2017-08-15T18:56:02.639Z,54.40
2017-08-15T18:58:31.099Z,54.50
2017-08-15T19:00:59.375Z,55.10
2017-08-15T19:03:27.647Z,55.30
2017-08-15T19:05:55.949Z,55.50
2017-08-15T19:08:24.239Z,55.10
2017-08-15T19:10:52.569Z,55.20
2017-08-15T19:13:20.860Z,55.90
2017-08-15T19:15:49.177Z,55.70
2017-08-15T19:18:17.452Z,55.90
2017-08-15T19:20:45.933Z,56.00
2017-08-15T19:23:14.280Z,55.90
2017-08-15T19:25:42.592Z,56.70
2017-08-15T19:28:10.868Z,57.00
2017-08-15T19:30:39.155Z,58.20
2017-08-15T19:33:07.483Z,58.20
2017-08-15T19:35:35.836Z,58.70
2017-08-15T19:38:04.116Z,58.80
2017-08-15T19:40:32.400Z,57.90
2017-08-15T19:43:00.696Z,58.00
2017-08-15T19:45:29.900Z,58.50
2017-08-15T19:47:58.449Z,58.50
2017-08-15T19:50:27.494Z,58.90
2017-08-15T19:52:55.808Z,58.80
2017-08-15T19:55:24.257Z,58.00
2017-08-15T19:57:52.604Z,57.80
2017-08-15T20:00:20.909Z,58.00
2017-08-15T20:02:49.224Z,58.50
2017-08-15T20:05:17.504Z,58.50
2017-08-15T20:07:46.559Z,59.90
2017-08-15T20:10:14.876Z,59.90
2017-08-15T20:12:43.179Z,59.40
2017-08-15T20:15:11.462Z,60.30
2017-08-15T20:17:39.784Z,61.00
2017-08-15T20:20:08.105Z,62.20
2017-08-15T20:22:36.384Z,63.50
2017-08-15T20:25:04.737Z,64.30
2017-08-15T20:27:33.019Z,66.60
2017-08-15T20:30:01.297Z,66.80
2017-08-15T20:32:29.595Z,69.10
2017-08-15T20:34:58.640Z,71.70
2017-08-15T20:37:26.920Z,71.60
2017-08-15T20:39:55.255Z,71.50
2017-08-15T20:42:23.543Z,73.10
2017-08-15T20:44:51.819Z,74.40
2017-08-15T20:47:20.892Z,77.10
2017-08-15T20:49:49.161Z,77.40
2017-08-15T20:52:18.200Z,77.50
2017-08-15T20:54:48.075Z,77.80
2017-08-15T20:57:16.357Z,77.60
2017-08-15T20:59:44.625Z,77.30
2017-08-15T21:02:12.930Z,77.80
2017-08-15T21:04:41.956Z,79.30
2017-08-15T21:07:10.227Z,79.20
2017-08-15T21:09:38.643Z,79.90
2017-08-15T21:12:06.937Z,80.30
2017-08-15T21:14:35.219Z,80.60
2017-08-15T21:17:03.494Z,80.40
2017-08-15T21:19:31.784Z,79.90
2017-08-15T21:22:00.820Z,77.60
2017-08-15T21:24:29.108Z,77.60
2017-08-15T21:26:57.387Z,77.00
2017-08-15T21:29:26.471Z,78.10
2017-08-15T21:31:54.752Z,78.10
2017-08-15T21:34:23.031Z,77.10
2017-08-15T21:36:51.311Z,76.80
2017-08-15T21:39:19.583Z,76.90
2017-08-15T21:41:47.901Z,76.50
2017-08-15T21:44:16.181Z,77.00
2017-08-15T21:46:44.440Z,78.30
2017-08-15T21:49:12.953Z,78.20
2017-08-15T21:51:41.216Z,78.10
2017-08-15T21:54:10.290Z,79.90
2017-08-15T21:56:38.551Z,79.40
2017-08-15T21:59:07.579Z,80.90
2017-08-15T22:01:41.613Z,80.70
2017-08-15T22:04:09.900Z,81.20
2017-08-15T22:06:38.979Z,79.70
2017-08-15T22:09:08.000Z,80.50
2017-08-15T22:11:36.369Z,80.40
2017-08-15T22:14:04.641Z,81.20
2017-08-15T22:16:32.907Z,81.30
2017-08-15T22:19:01.228Z,82.00
2017-08-15T22:21:29.503Z,81.90
2017-08-15T22:23:57.877Z,81.80
2017-08-15T22:26:26.192Z,82.30
2017-08-15T22:28:54.496Z,82.00
2017-08-15T22:31:22.799Z,83.40
2017-08-15T22:33:51.077Z,83.50
2017-08-15T22:36:20.175Z,84.60
2017-08-15T22:38:48.491Z,84.60
2017-08-15T22:41:16.759Z,85.10
2017-08-15T22:43:45.050Z,85.00
2017-08-15T22:46:14.118Z,85.00
2017-08-15T22:48:44.073Z,86.20
2017-08-15T22:51:12.377Z,85.50
2017-08-15T22:53:41.433Z,84.20
2017-08-15T22:56:09.808Z,83.50
2017-08-15T22:58:38.127Z,84.00
2017-08-15T23:01:06.434Z,83.90
2017-08-15T23:03:34.711Z,83.50
2017-08-15T23:06:03.772Z,84.10
2017-08-15T23:08:32.152Z,84.10
2017-08-15T23:11:01.188Z,84.90
2017-08-15T23:13:29.519Z,84.90
2017-08-15T23:15:57.792Z,84.80
2017-08-15T23:18:26.108Z,84.70
2017-08-15T23:20:55.174Z,84.00
2017-08-15T23:23:23.444Z,84.00
2017-08-15T23:25:51.773Z,83.40
2017-08-15T23:28:20.139Z,83.30
2017-08-15T23:30:48.443Z,84.00
2017-08-15T23:33:16.834Z,84.70
2017-08-15T23:35:45.160Z,85.10
2017-08-15T23:38:13.479Z,83.40
2017-08-15T23:40:41.755Z,83.50
2017-08-15T23:43:10.087Z,83.60
2017-08-15T23:45:38.423Z,82.00
2017-08-15T23:48:07.455Z,82.00
2017-08-15T23:50:35.819Z,81.90
2017-08-15T23:53:04.143Z,81.40
2017-08-15T23:55:33.167Z,81.80
2017-08-15T23:58:01.495Z,81.80
